Time;durP1;ratioP1;P1;durP2;ratioP2;P2;SDS_P1;SDS_P2;PMS_P1;PMS_P2;Temp;Humidity;BMP_temperature;BMP_pressure;BME280_temperature;BME280_humidity;BME280_pressure;Samples;Min_cycle;Max_cycle;Signal;HPM_P1;HPM_P2
2023/01/28 00:00:32;;;;;;;12.73;10.70;;;2.40;99.90;;;;;;5009036;28;20030;-65
2023/01/28 00:02:58;;;;;;;9.40;8.50;;;2.40;99.90;;;;;;5009182;28;20419;-65
2023/01/28 00:05:24;;;;;;;9.25;8.45;;;2.40;99.90;;;;;;5010146;28;20041;-65
2023/01/28 00:07:50;;;;;;;8.60;7.90;;;2.40;99.90;;;;;;5010014;28;20450;-65
2023/01/28 00:10:16;;;;;;;8.77;8.07;;;2.30;99.90;;;;;;5009673;28;20025;-64
2023/01/28 00:12:41;;;;;;;9.32;8.50;;;2.30;99.90;;;;;;5009572;28;20030;-65
2023/01/28 00:15:09;;;;;;;9.23;8.32;;;2.30;99.90;;;;;;4991272;28;20537;-65
2023/01/28 00:17:38;;;;;;;9.27;8.43;;;2.30;99.90;;;;;;4992625;28;20080;-65
2023/01/28 00:20:04;;;;;;;10.45;9.45;;;2.30;99.90;;;;;;4990176;28;20044;-65
2023/01/28 00:22:31;;;;;;;9.68;8.77;;;2.30;99.90;;;;;;5009094;28;20172;-65
2023/01/28 00:24:57;;;;;;;10.10;9.15;;;2.20;99.90;;;;;;5009941;28;20048;-65
2023/01/28 00:27:23;;;;;;;10.32;9.38;;;2.20;99.90;;;;;;5009825;28;20053;-65
2023/01/28 00:29:48;;;;;;;11.60;9.90;;;2.20;99.90;;;;;;5009283;28;20046;-65
2023/01/28 00:32:14;;;;;;;11.98;10.07;;;2.20;99.90;;;;;;5010743;28;20174;-65
2023/01/28 00:34:40;;;;;;;9.90;8.90;;;2.20;99.90;;;;;;5009201;28;20045;-65
2023/01/28 00:37:06;;;;;;;16.63;10.45;;;2.20;99.90;;;;;;4992949;28;20532;-65
2023/01/28 00:39:31;;;;;;;8.85;8.02;;;2.20;99.90;;;;;;5008060;28;20046;-65
2023/01/28 00:41:57;;;;;;;8.52;7.82;;;2.10;99.90;;;;;;4992375;28;20137;-65
2023/01/28 00:44:23;;;;;;;8.93;8.02;;;2.10;99.90;;;;;;5010030;28;20486;-65
2023/01/28 00:46:48;;;;;;;8.80;8.02;;;2.10;99.90;;;;;;5010249;28;20104;-65
2023/01/28 00:49:14;;;;;;;9.07;8.23;;;2.20;99.90;;;;;;5007487;28;20038;-65
2023/01/28 00:51:41;;;;;;;7.90;7.22;;;2.10;99.90;;;;;;5009824;28;20041;-65
2023/01/28 00:54:06;;;;;;;7.63;6.90;;;2.00;99.90;;;;;;5008527;28;20038;-65
2023/01/28 00:56:32;;;;;;;8.30;7.60;;;2.00;99.90;;;;;;5009119;28;20498;-65
2023/01/28 00:58:58;;;;;;;7.90;7.15;;;2.00;99.90;;;;;;4986386;28;20054;-65
2023/01/28 01:01:26;;;;;;;9.55;8.75;;;2.00;99.90;;;;;;4991289;28;20070;-66
2023/01/28 01:04:02;;;;;;;9.55;8.65;;;2.00;99.90;;;;;;5009404;28;20128;-65
2023/01/28 01:06:30;;;;;;;9.38;8.48;;;2.00;99.90;;;;;;5014217;28;20152;-66
2023/01/28 01:08:56;;;;;;;9.98;9.10;;;1.90;99.90;;;;;;4994551;28;20121;-65
2023/01/28 01:11:23;;;;;;;11.05;10.13;;;2.00;99.90;;;;;;4995735;28;20141;-65
2023/01/28 01:13:54;;;;;;;18.00;15.63;;;2.00;99.90;;;;;;5013513;28;20077;-65
2023/01/28 01:16:21;;;;;;;11.10;10.10;;;2.00;99.90;;;;;;4996156;28;20349;-65
2023/01/28 01:18:47;;;;;;;11.75;10.57;;;1.90;99.90;;;;;;5011686;28;20129;-65
2023/01/28 01:21:16;;;;;;;11.98;10.77;;;2.10;99.90;;;;;;5013119;28;20120;-65
2023/01/28 01:23:43;;;;;;;11.63;10.63;;;2.00;99.90;;;;;;5012523;28;20044;-65
2023/01/28 01:26:09;;;;;;;11.35;10.27;;;2.00;99.90;;;;;;5013259;28;20073;-64
2023/01/28 01:28:35;;;;;;;12.23;11.07;;;2.00;99.90;;;;;;5010641;28;20096;-65
2023/01/28 01:31:04;;;;;;;12.18;10.98;;;1.90;99.90;;;;;;5012978;28;20352;-65
2023/01/28 01:33:30;;;;;;;10.70;9.70;;;2.00;99.90;;;;;;5013187;28;20124;-65
2023/01/28 01:35:56;;;;;;;12.23;11.13;;;1.90;99.90;;;;;;5009512;28;20041;-65
2023/01/28 01:38:22;;;;;;;11.82;10.73;;;2.00;99.90;;;;;;5012440;28;20556;-65
2023/01/28 01:40:48;;;;;;;12.50;11.30;;;1.90;99.90;;;;;;5012523;28;20054;-66
2023/01/28 01:43:16;;;;;;;12.50;11.30;;;2.00;99.90;;;;;;5012057;28;20446;-65
2023/01/28 01:45:46;;;;;;;12.23;11.02;;;1.90;99.90;;;;;;4992262;28;20050;-65
2023/01/28 01:48:33;;;;;;;12.93;11.73;;;1.90;99.90;;;;;;5010471;28;20038;-65
2023/01/28 01:51:09;;;;;;;12.02;10.82;;;1.90;99.90;;;;;;5010322;28;20144;-65
2023/01/28 01:53:42;;;;;;;10.55;9.55;;;1.90;99.90;;;;;;5012188;28;20056;-65
2023/01/28 01:56:10;;;;;;;10.75;9.75;;;1.90;99.90;;;;;;5011043;28;20442;-65
2023/01/28 01:58:39;;;;;;;11.00;9.98;;;1.90;99.90;;;;;;5006980;28;20470;-65
2023/01/28 02:01:06;;;;;;;11.15;10.15;;;1.90;99.90;;;;;;4994644;28;20060;-66
2023/01/28 02:03:45;;;;;;;9.32;8.52;;;1.90;99.90;;;;;;4995111;28;20045;-66
2023/01/28 02:06:12;;;;;;;9.40;8.55;;;1.90;99.90;;;;;;5012140;28;20133;-66
2023/01/28 02:08:37;;;;;;;8.77;8.00;;;1.90;99.90;;;;;;4993970;28;20124;-66
2023/01/28 02:11:06;;;;;;;9.27;8.35;;;1.80;99.90;;;;;;5012700;28;20431;-66
2023/01/28 02:13:38;;;;;;;9.55;8.65;;;1.80;99.90;;;;;;5013152;28;20574;-66
2023/01/28 02:16:05;;;;;;;9.27;8.43;;;1.80;99.90;;;;;;5010139;28;20429;-66
2023/01/28 02:18:32;;;;;;;8.70;8.00;;;1.80;99.90;;;;;;5012531;28;20038;-66
2023/01/28 02:21:13;;;;;;;7.95;7.28;;;1.80;99.90;;;;;;5012392;28;20041;-66
2023/01/28 02:24:05;;;;;;;7.57;6.93;;;1.80;99.90;;;;;;4994831;28;20103;-66
2023/01/28 02:26:52;;;;;;;8.40;7.70;;;1.80;99.90;;;;;;5011564;28;20042;-66
2023/01/28 02:29:58;;;;;;;7.93;7.22;;;1.80;99.90;;;;;;4992954;28;20066;-66
2023/01/28 02:32:37;;;;;;;7.80;7.10;;;1.80;99.90;;;;;;5012039;28;20549;-66
2023/01/28 02:35:14;;;;;;;8.73;7.85;;;1.70;99.90;;;;;;5011446;28;20045;-66
2023/01/28 02:37:58;;;;;;;8.70;8.00;;;1.70;99.90;;;;;;5011474;28;20085;-66
2023/01/28 02:40:28;;;;;;;8.38;7.68;;;1.70;99.90;;;;;;4969271;28;20046;-66
2023/01/28 02:42:55;;;;;;;8.13;7.53;;;1.70;99.90;;;;;;5010551;28;20489;-66
2023/01/28 02:45:22;;;;;;;9.73;8.82;;;1.70;99.90;;;;;;5010475;28;20064;-66
2023/01/28 02:47:57;;;;;;;9.20;8.50;;;1.70;99.90;;;;;;5012757;28;20096;-66
2023/01/28 02:50:24;;;;;;;;;;;1.70;99.90;;;;;;5008976;28;20034;-66
2023/01/28 02:56:28;;;;;;;8.65;7.85;;;1.70;99.90;;;;;;5011512;28;20065;-66
2023/01/28 02:58:59;;;;;;;9.15;8.35;;;1.70;99.90;;;;;;4975474;28;20060;-66
2023/01/28 03:01:33;;;;;;;8.95;8.20;;;1.70;99.90;;;;;;4994381;28;20377;-66
2023/01/28 03:04:16;;;;;;;8.18;7.47;;;1.70;99.90;;;;;;4993629;28;21032;-66
2023/01/28 03:06:48;;;;;;;8.70;7.97;;;1.70;99.90;;;;;;5011180;28;20068;-66
2023/01/28 03:09:21;;;;;;;9.35;8.50;;;1.70;99.90;;;;;;5009764;28;20041;-66
2023/01/28 03:38:21;;;;;;;10.13;9.23;;;1.70;99.90;;;;;;5011152;28;20758;-66
2023/01/28 03:40:59;;;;;;;8.95;8.13;;;1.80;99.90;;;;;;4992991;28;20052;-66
2023/01/28 03:43:25;;;;;;;8.85;8.05;;;1.70;99.90;;;;;;4993836;28;20092;-66
2023/01/28 03:45:51;;;;;;;8.80;8.07;;;1.70;99.90;;;;;;5007729;28;20038;-66
2023/01/28 03:48:22;;;;;;;8.20;7.40;;;1.80;99.90;;;;;;5005101;28;20038;-66
2023/01/28 03:50:48;;;;;;;9.20;8.40;;;1.70;99.90;;;;;;5008841;28;20049;-66
2023/01/28 03:53:15;;;;;;;10.82;8.55;;;1.80;99.90;;;;;;5010144;28;20088;-66
2023/01/28 03:55:41;;;;;;;9.60;8.70;;;1.80;99.90;;;;;;5010568;28;20068;-66
2023/01/28 03:58:08;;;;;;;8.55;7.70;;;1.80;99.90;;;;;;5011042;28;20042;-66
2023/01/28 04:00:36;;;;;;;8.05;7.35;;;1.70;99.90;;;;;;5010069;28;20049;-66
2023/01/28 04:03:03;;;;;;;8.00;7.28;;;1.80;99.90;;;;;;4993708;28;20414;-66
2023/01/28 04:05:29;;;;;;;8.10;7.30;;;1.80;99.90;;;;;;5010838;28;20049;-66
2023/01/28 04:07:55;;;;;;;8.73;7.85;;;1.80;99.90;;;;;;5010335;28;20116;-66
2023/01/28 04:10:21;;;;;;;8.88;8.05;;;1.80;99.90;;;;;;5010885;28;20232;-66
2023/01/28 04:12:48;;;;;;;8.05;7.25;;;1.80;99.90;;;;;;5010973;28;20542;-66
2023/01/28 04:15:17;;;;;;;8.23;7.53;;;1.80;99.90;;;;;;5010725;28;20113;-66
2023/01/28 04:17:47;;;;;;;8.07;7.28;;;1.80;99.90;;;;;;4991107;28;20492;-66
2023/01/28 04:20:13;;;;;;;7.72;7.03;;;1.80;99.90;;;;;;5010425;28;20129;-66
2023/01/28 04:22:39;;;;;;;8.85;8.05;;;1.70;99.90;;;;;;5010810;28;20038;-66
2023/01/28 04:25:06;;;;;;;9.18;8.38;;;1.80;99.90;;;;;;5010748;28;20046;-66
2023/01/28 04:27:31;;;;;;;8.80;7.90;;;1.80;99.90;;;;;;5010521;28;20137;-66
2023/01/28 04:29:57;;;;;;;9.60;8.63;;;1.80;99.90;;;;;;5010296;28;20513;-66
2023/01/28 04:32:23;;;;;;;9.75;8.23;;;1.80;99.90;;;;;;5011088;28;20802;-66
2023/01/28 04:34:48;;;;;;;9.82;8.85;;;1.80;99.90;;;;;;5009753;28;20030;-66
2023/01/28 04:37:14;;;;;;;9.02;8.23;;;1.80;99.90;;;;;;5011379;28;20475;-66
2023/01/28 04:39:40;;;;;;;9.60;8.70;;;1.80;99.90;;;;;;4970702;28;20056;-66
2023/01/28 04:42:05;;;;;;;9.90;9.00;;;1.80;99.90;;;;;;5011182;28;20068;-66
2023/01/28 04:44:31;;;;;;;8.85;8.00;;;1.80;99.90;;;;;;4991970;28;20144;-66
2023/01/28 04:46:57;;;;;;;7.00;6.35;;;1.80;99.90;;;;;;5011030;28;20619;-66
2023/01/28 04:49:23;;;;;;;6.40;5.80;;;1.80;99.90;;;;;;5009938;28;20040;-66
2023/01/28 04:51:48;;;;;;;7.65;6.95;;;1.80;99.90;;;;;;5011344;28;20064;-66
2023/01/28 04:54:14;;;;;;;8.27;6.72;;;1.80;99.90;;;;;;5009273;28;20042;-66
2023/01/28 04:56:40;;;;;;;8.55;7.75;;;1.80;99.90;;;;;;4993203;28;20041;-66
2023/01/28 04:59:05;;;;;;;9.82;7.95;;;1.80;99.90;;;;;;5010143;28;20113;-66
2023/01/28 05:01:31;;;;;;;7.78;7.03;;;1.80;99.90;;;;;;5009996;28;20394;-66
2023/01/28 05:03:57;;;;;;;6.32;5.70;;;1.80;99.90;;;;;;5009825;28;20480;-66
2023/01/28 05:06:22;;;;;;;6.30;5.72;;;1.80;99.90;;;;;;5009576;28;20045;-66
2023/01/28 05:08:48;;;;;;;6.22;5.60;;;1.80;99.90;;;;;;5009955;28;20119;-66
2023/01/28 05:11:14;;;;;;;6.10;5.57;;;1.80;99.90;;;;;;5010530;28;20497;-66
2023/01/28 05:13:40;;;;;;;6.63;5.50;;;1.80;99.90;;;;;;5010347;28;20034;-66
2023/01/28 05:16:06;;;;;;;6.60;5.47;;;1.80;99.90;;;;;;5010587;28;20087;-66
2023/01/28 05:18:31;;;;;;;6.05;5.55;;;1.80;99.90;;;;;;5008616;28;20392;-66
2023/01/28 05:20:57;;;;;;;7.70;6.30;;;1.90;99.90;;;;;;5010471;28;20050;-66
2023/01/28 05:23:23;;;;;;;7.57;6.25;;;1.80;99.90;;;;;;5010729;28;20048;-66
2023/01/28 05:25:49;;;;;;;4.72;4.10;;;1.80;99.90;;;;;;5010221;28;20072;-66
2023/01/28 05:28:15;;;;;;;6.03;5.10;;;1.80;99.90;;;;;;5010001;28;20057;-66
2023/01/28 05:30:41;;;;;;;6.65;5.95;;;1.80;99.90;;;;;;4991174;28;20397;-66
2023/01/28 05:33:06;;;;;;;8.65;6.70;;;1.80;99.90;;;;;;4992391;28;20108;-66
2023/01/28 05:35:33;;;;;;;8.48;7.68;;;1.80;99.90;;;;;;5009745;28;20092;-66
2023/01/28 05:37:58;;;;;;;10.07;8.95;;;1.80;99.90;;;;;;5009735;28;20096;-66
2023/01/28 05:40:24;;;;;;;9.48;8.57;;;1.80;99.90;;;;;;5010213;28;20390;-66
2023/01/28 05:42:50;;;;;;;9.52;8.63;;;1.80;99.90;;;;;;5010124;28;20512;-66
2023/01/28 05:45:15;;;;;;;10.50;9.50;;;1.80;99.90;;;;;;5009822;28;20398;-66
2023/01/28 05:47:41;;;;;;;11.18;10.07;;;1.80;99.90;;;;;;5010146;28;20046;-66
2023/01/28 05:50:07;;;;;;;10.68;9.68;;;1.80;99.90;;;;;;5009323;28;20493;-66
2023/01/28 05:52:33;;;;;;;11.02;9.93;;;1.70;99.90;;;;;;5011786;28;20117;-66
2023/01/28 05:55:00;;;;;;;10.05;9.05;;;1.70;99.90;;;;;;5012648;28;20196;-66
2023/01/28 05:57:26;;;;;;;10.82;9.73;;;1.80;99.90;;;;;;4994527;28;20437;-66
2023/01/28 05:59:51;;;;;;;10.32;9.43;;;1.70;99.90;;;;;;4993281;28;20083;-66
2023/01/28 06:02:17;;;;;;;10.55;9.55;;;1.70;99.90;;;;;;5012381;28;20080;-66
2023/01/28 06:04:43;;;;;;;11.00;9.90;;;1.70;99.90;;;;;;4993875;28;20076;-66
2023/01/28 06:07:08;;;;;;;9.75;8.85;;;1.70;99.90;;;;;;5012042;28;20049;-66
2023/01/28 06:09:34;;;;;;;10.57;9.57;;;1.70;99.90;;;;;;5011614;28;20394;-66
2023/01/28 06:12:00;;;;;;;10.52;9.52;;;1.70;99.90;;;;;;4994096;28;20378;-66
2023/01/28 06:14:26;;;;;;;10.70;9.60;;;1.70;99.90;;;;;;4992122;28;20037;-66
2023/01/28 06:16:51;;;;;;;11.05;9.95;;;1.70;99.90;;;;;;5002549;28;20192;-66
2023/01/28 06:19:17;;;;;;;12.63;10.48;;;1.70;99.90;;;;;;5010798;28;20045;-66
2023/01/28 06:21:43;;;;;;;11.13;10.07;;;1.70;99.90;;;;;;5011650;28;20052;-66
2023/01/28 06:24:08;;;;;;;11.48;10.30;;;1.70;99.90;;;;;;4993565;28;20140;-66
2023/01/28 06:26:34;;;;;;;12.18;10.98;;;1.70;99.90;;;;;;5011942;28;20042;-66
2023/01/28 06:29:00;;;;;;;12.55;10.25;;;1.70;99.90;;;;;;5009415;28;20160;-66
2023/01/28 06:31:26;;;;;;;11.77;10.68;;;1.70;99.90;;;;;;4993393;28;20052;-66
2023/01/28 06:33:51;;;;;;;11.98;10.77;;;1.60;99.90;;;;;;5011670;28;20041;-66
2023/01/28 06:36:17;;;;;;;12.02;10.82;;;1.70;99.90;;;;;;5011166;28;20410;-66
2023/01/28 06:38:43;;;;;;;11.07;9.93;;;1.60;99.90;;;;;;5010614;28;20113;-66
2023/01/28 06:41:08;;;;;;;11.68;10.45;;;1.70;99.90;;;;;;5011831;28;20124;-66
2023/01/28 06:43:34;;;;;;;12.25;10.93;;;1.60;99.90;;;;;;4993099;28;20476;-66
2023/01/28 06:46:00;;;;;;;11.25;10.13;;;1.70;99.90;;;;;;4993586;28;20096;-66
2023/01/28 06:48:26;;;;;;;11.82;10.73;;;1.70;99.90;;;;;;5002390;28;20033;-66
2023/01/28 06:50:52;;;;;;;10.93;9.90;;;1.60;99.90;;;;;;5010836;28;20046;-66
2023/01/28 06:53:18;;;;;;;11.23;10.13;;;1.60;99.90;;;;;;5009305;28;20037;-66
2023/01/28 06:55:44;;;;;;;11.88;10.68;;;1.60;99.90;;;;;;5011031;28;20041;-66
2023/01/28 06:58:10;;;;;;;11.88;10.38;;;1.60;99.90;;;;;;5010563;28;20030;-66
2023/01/28 07:00:36;;;;;;;11.30;10.30;;;1.70;99.90;;;;;;5010686;28;20583;-66
2023/01/28 07:03:03;;;;;;;12.27;10.85;;;1.60;99.90;;;;;;5009710;28;20080;-66
2023/01/28 07:05:28;;;;;;;12.07;9.88;;;1.60;99.90;;;;;;4992657;28;20049;-66
2023/01/28 07:07:54;;;;;;;11.43;10.32;;;1.60;99.90;;;;;;5007759;28;20042;-66
2023/01/28 07:10:20;;;;;;;10.77;9.75;;;1.60;99.90;;;;;;4992588;28;20084;-66
2023/01/28 07:12:46;;;;;;;11.50;10.35;;;1.60;99.90;;;;;;5011087;28;20053;-66
2023/01/28 07:15:11;;;;;;;11.15;10.05;;;1.60;99.90;;;;;;5010852;28;20611;-66
2023/01/28 07:17:40;;;;;;;11.10;10.00;;;1.60;99.90;;;;;;5010800;28;20050;-66
2023/01/28 07:20:08;;;;;;;12.50;10.57;;;1.60;99.90;;;;;;5008569;28;20042;-66
2023/01/28 07:22:33;;;;;;;11.45;10.35;;;1.60;99.90;;;;;;5010415;28;20503;-66
2023/01/28 07:25:00;;;;;;;10.45;9.43;;;1.60;99.90;;;;;;4976976;28;20042;-66
2023/01/28 07:27:26;;;;;;;11.07;9.75;;;1.60;99.90;;;;;;4992628;28;20046;-66
2023/01/28 07:29:52;;;;;;;10.65;9.60;;;1.60;99.90;;;;;;4989778;28;20655;-66
2023/01/28 07:32:17;;;;;;;12.48;11.18;;;1.60;99.90;;;;;;5010648;28;20041;-65
2023/01/28 07:34:43;;;;;;;12.55;11.10;;;1.60;99.90;;;;;;4990865;28;20122;-65
2023/01/28 07:37:09;;;;;;;12.10;10.88;;;1.60;99.90;;;;;;5010624;28;20050;-65
2023/01/28 07:39:35;;;;;;;11.45;10.10;;;1.60;99.90;;;;;;5008918;28;20150;-65
2023/01/28 07:42:01;;;;;;;12.00;10.60;;;1.60;99.90;;;;;;5010722;28;20496;-66
2023/01/28 07:44:27;;;;;;;11.98;10.70;;;1.60;99.90;;;;;;5009559;28;20554;-65
2023/01/28 07:46:53;;;;;;;11.73;10.63;;;1.60;99.90;;;;;;5010792;28;20046;-66
2023/01/28 07:49:19;;;;;;;10.88;9.75;;;1.60;99.90;;;;;;5008413;28;20044;-66
2023/01/28 07:51:49;;;;;;;10.93;9.00;;;1.60;99.90;;;;;;5009444;28;20046;-66
2023/01/28 07:54:15;;;;;;;9.65;8.70;;;1.60;99.90;;;;;;5007186;28;20096;-66
2023/01/28 07:56:41;;;;;;;9.73;8.73;;;1.60;99.90;;;;;;4991710;28;20056;-66
2023/01/28 07:59:06;;;;;;;10.85;8.77;;;1.60;99.90;;;;;;5009054;28;20038;-66
2023/01/28 08:01:32;;;;;;;10.77;9.68;;;1.60;99.90;;;;;;5009561;28;20087;-66
2023/01/28 08:03:58;;;;;;;11.35;10.23;;;1.60;99.90;;;;;;5009008;28;20054;-66
2023/01/28 08:06:24;;;;;;;10.88;9.75;;;1.60;99.90;;;;;;5008836;28;20092;-66
2023/01/28 08:08:49;;;;;;;10.85;9.23;;;1.70;99.90;;;;;;5007659;28;20041;-66
2023/01/28 08:11:15;;;;;;;9.85;8.90;;;1.70;99.90;;;;;;5009843;28;20041;-66
2023/01/28 08:13:41;;;;;;;10.60;9.30;;;1.70;99.90;;;;;;4992727;28;20096;-66
2023/01/28 08:16:07;;;;;;;10.70;9.57;;;1.60;99.90;;;;;;5009041;28;20425;-66
2023/01/28 08:18:32;;;;;;;9.57;8.65;;;1.70;99.90;;;;;;5009486;28;20116;-66
2023/01/28 08:20:59;;;;;;;10.80;9.48;;;1.80;99.90;;;;;;5008416;28;20038;-66
2023/01/28 08:23:26;;;;;;;10.35;8.48;;;2.40;99.90;;;;;;5008984;28;20049;-66
2023/01/28 08:25:52;;;;;;;9.82;8.80;;;3.40;99.90;;;;;;5008616;28;20503;-66
2023/01/28 08:28:18;;;;;;;9.57;8.60;;;4.10;99.90;;;;;;5009156;28;20056;-66
2023/01/28 08:30:45;;;;;;;8.57;7.78;;;4.60;99.90;;;;;;4990927;28;20045;-66
2023/01/28 08:33:14;;;;;;;9.52;8.52;;;5.00;99.90;;;;;;4989987;28;20120;-66
2023/01/28 08:35:40;;;;;;;9.35;8.48;;;5.10;99.90;;;;;;4990015;28;20040;-66
2023/01/28 08:38:07;;;;;;;9.48;8.57;;;5.30;99.90;;;;;;5008612;28;20160;-65
2023/01/28 08:40:34;;;;;;;10.05;8.07;;;5.50;99.90;;;;;;5008017;28;20037;-66
2023/01/28 08:43:00;;;;;;;9.18;8.20;;;5.60;99.90;;;;;;5007045;28;20041;-65
2023/01/28 08:45:27;;;;;;;9.20;8.30;;;5.80;99.90;;;;;;5007976;28;20065;-65
2023/01/28 08:48:03;;;;;;;8.43;7.63;;;5.90;99.90;;;;;;5007619;28;20034;-68
2023/01/28 08:50:35;;;;;;;8.60;7.82;;;6.40;99.90;;;;;;4989366;28;20049;-66
2023/01/28 08:53:07;;;;;;;7.70;6.72;;;6.70;99.90;;;;;;5006736;28;20493;-66
2023/01/28 08:55:33;;;;;;;8.27;7.53;;;7.40;99.90;;;;;;5008881;28;20117;-66
2023/01/28 08:58:04;;;;;;;7.43;6.72;;;8.20;99.90;;;;;;5010664;28;20069;-66
2023/01/28 09:00:30;;;;;;;8.13;7.00;;;9.10;99.90;;;;;;5008617;28;20362;-66
2023/01/28 09:02:55;;;;;;;7.75;6.95;;;9.80;99.90;;;;;;5009625;28;20089;-66
2023/01/28 09:05:21;;;;;;;7.60;6.90;;;9.90;99.90;;;;;;5009522;28;20037;-66
2023/01/28 09:07:48;;;;;;;7.70;7.00;;;9.40;99.90;;;;;;5010287;28;20042;-66
2023/01/28 09:10:15;;;;;;;6.95;6.35;;;9.60;99.90;;;;;;5009729;28;20072;-66
2023/01/28 09:12:41;;;;;;;6.93;6.35;;;10.00;99.90;;;;;;5011237;28;20084;-66
2023/01/28 09:15:08;;;;;;;8.38;6.35;;;10.50;99.90;;;;;;5011221;28;20081;-66
2023/01/28 09:17:34;;;;;;;7.47;6.88;;;10.90;99.90;;;;;;5011084;28;20038;-66
2023/01/28 09:20:00;;;;;;;7.53;6.93;;;11.00;99.90;;;;;;5008293;28;20064;-66
2023/01/28 09:22:25;;;;;;;8.27;7.38;;;10.90;99.90;;;;;;4993134;28;20038;-66
2023/01/28 09:24:51;;;;;;;7.32;6.53;;;10.90;99.90;;;;;;5011032;28;20180;-66
2023/01/28 09:27:17;;;;;;;6.95;6.35;;;11.50;99.90;;;;;;5012863;28;20037;-66
2023/01/28 09:29:43;;;;;;;6.70;6.20;;;11.30;99.90;;;;;;5014161;28;20505;-66
2023/01/28 09:32:09;;;;;;;7.57;6.93;;;10.10;99.90;;;;;;4996033;28;20041;-65
2023/01/28 09:34:35;;;;;;;7.50;6.90;;;9.00;99.90;;;;;;5013895;28;20045;-65
2023/01/28 09:37:00;;;;;;;7.75;7.05;;;8.10;99.90;;;;;;5013265;28;20128;-66
2023/01/28 09:39:27;;;;;;;7.85;7.15;;;7.30;99.90;;;;;;4995979;28;20470;-66
2023/01/28 09:42:05;;;;;;;8.45;7.75;;;6.80;99.90;;;;;;5013078;28;20454;-66
2023/01/28 09:44:42;;;;;;;8.88;8.07;;;6.30;99.90;;;;;;5012672;28;20045;-66
2023/01/28 09:47:16;;;;;;;9.23;8.07;;;6.20;99.90;;;;;;5012886;28;20041;-66
2023/01/28 09:49:49;;;;;;;8.90;7.72;;;6.30;99.90;;;;;;4992618;28;20041;-66
2023/01/28 09:52:18;;;;;;;8.32;7.53;;;6.10;99.90;;;;;;5012821;28;20034;-66
2023/01/28 09:54:48;;;;;;;8.23;7.55;;;6.00;99.90;;;;;;5012589;28;20569;-65
2023/01/28 09:57:42;;;;;;;8.73;7.80;;;5.90;99.90;;;;;;5013396;28;20052;-66
2023/01/28 10:00:46;;;;;;;8.45;7.75;;;6.40;99.90;;;;;;5013089;28;20044;-66
2023/01/28 10:03:33;;;;;;;15.48;11.90;;;8.10;99.90;;;;;;5012878;28;20053;-66
2023/01/28 10:06:08;;;;;;;14.02;12.52;;;9.90;99.90;;;;;;5012715;28;20050;-66
2023/01/28 10:08:42;;;;;;;6.72;6.13;;;11.10;99.90;;;;;;5013798;28;20052;-66
2023/01/28 10:11:15;;;;;;;;;;;11.90;99.90;;;;;;5014294;28;20116;-66
2023/01/28 10:13:48;;;;;;;6.20;5.60;;;12.50;99.90;;;;;;5013894;28;19952;-66
2023/01/28 10:16:20;;;;;;;5.72;5.28;;;13.00;99.90;;;;;;5012347;28;20049;-67
2023/01/28 10:19:27;;;;;;;6.28;5.75;;;13.50;99.90;;;;;;4993913;28;20049;-67
2023/01/28 10:21:59;;;;;;;6.10;5.47;;;13.70;99.90;;;;;;4951521;28;20051;-67
2023/01/28 10:24:33;;;;;;;6.10;5.57;;;13.80;99.90;;;;;;5004769;28;20053;-67
2023/01/28 10:26:59;;;;;;;;;;;13.30;99.90;;;;;;5011459;28;20128;-67
2023/01/28 10:29:28;;;;;;;5.88;5.38;;;12.80;95.20;;;;;;5012266;28;19968;-67
2023/01/28 10:32:01;;;;;;;5.13;4.72;;;11.70;99.90;;;;;;4994656;28;20470;-67
2023/01/28 10:34:27;;;;;;;5.50;5.00;;;10.30;99.90;;;;;;5010291;28;20034;-67
2023/01/28 10:36:55;;;;;;;6.03;5.50;;;9.00;99.90;;;;;;5011100;28;20095;-67
2023/01/28 10:39:23;;;;;;;5.82;5.40;;;8.20;99.90;;;;;;5011779;28;20127;-67
2023/01/28 10:41:49;;;;;;;5.93;5.18;;;7.30;99.90;;;;;;5010108;28;20056;-66
2023/01/28 10:44:35;;;;;;;5.47;4.97;;;6.80;99.90;;;;;;5011089;28;20366;-66
2023/01/28 10:47:13;;;;;;;5.00;4.60;;;6.40;99.90;;;;;;5011433;28;20057;-66
2023/01/28 10:49:51;;;;;;;7.78;6.53;;;6.00;99.90;;;;;;5009013;28;20076;-66
2023/01/28 10:52:17;;;;;;;5.88;5.28;;;5.60;99.90;;;;;;5010474;28;20080;-66
2023/01/28 10:54:43;;;;;;;4.70;4.30;;;5.40;99.90;;;;;;5010299;28;20042;-66
2023/01/28 10:57:12;;;;;;;5.40;4.47;;;5.30;99.90;;;;;;5010647;28;20045;-66
2023/01/28 10:59:41;;;;;;;4.90;4.40;;;5.10;99.90;;;;;;5010530;28;20172;-66
2023/01/28 11:02:36;;;;;;;5.85;5.25;;;5.00;99.90;;;;;;4992920;28;20535;-66
2023/01/28 11:05:19;;;;;;;6.30;4.93;;;4.90;99.90;;;;;;5001350;28;20081;-66
2023/01/28 11:07:47;;;;;;;5.40;4.90;;;4.80;99.90;;;;;;5010813;28;20658;-66
2023/01/28 11:10:28;;;;;;;6.93;5.60;;;4.70;99.90;;;;;;5009886;28;20046;-66
2023/01/28 11:12:56;;;;;;;5.43;4.68;;;4.70;99.90;;;;;;5010847;28;20034;-66
2023/01/28 11:15:21;;;;;;;6.25;5.65;;;4.70;99.90;;;;;;5010744;28;20121;-66
2023/01/28 11:17:55;;;;;;;8.18;6.18;;;4.70;99.90;;;;;;5010563;28;20110;-66
2023/01/28 11:20:24;;;;;;;6.25;5.57;;;4.60;99.90;;;;;;5009463;28;20041;-66
2023/01/28 11:22:50;;;;;;;7.28;6.05;;;4.60;99.90;;;;;;4990570;28;20149;-66
2023/01/28 11:25:25;;;;;;;7.68;6.53;;;4.50;99.90;;;;;;5010358;28;20074;-66
2023/01/28 11:27:52;;;;;;;;;;;4.40;99.90;;;;;;5008785;28;20080;-66
2023/01/28 11:30:24;;;;;;;6.63;5.93;;;4.40;99.90;;;;;;5010690;28;20266;-66
2023/01/28 11:33:01;;;;;;;6.70;6.00;;;4.30;99.90;;;;;;4993627;28;20523;-66
2023/01/28 11:35:29;;;;;;;6.75;5.75;;;4.40;99.90;;;;;;5011309;28;20080;-66
2023/01/28 11:37:58;;;;;;;6.25;5.65;;;4.30;99.90;;;;;;5008935;28;20049;-66
2023/01/28 11:40:24;;;;;;;6.72;6.05;;;4.30;99.90;;;;;;5011371;28;20060;-66
2023/01/28 11:42:51;;;;;;;8.05;6.40;;;4.40;99.90;;;;;;5010582;28;20033;-64
2023/01/28 11:45:22;;;;;;;7.20;6.30;;;4.40;99.90;;;;;;5012305;28;20046;-68
2023/01/28 11:48:18;;;;;;;7.13;6.45;;;4.50;99.90;;;;;;4993581;28;20046;-65
2023/01/28 11:51:02;;;;;;;8.95;5.90;;;4.70;99.90;;;;;;5009428;28;20073;-65
2023/01/28 11:53:40;;;;;;;6.90;6.28;;;4.90;99.90;;;;;;5006948;28;20038;-65
2023/01/28 11:56:38;;;;;;;8.05;6.60;;;5.20;99.90;;;;;;5011912;28;20493;-65
2023/01/28 11:59:31;;;;;;;11.38;7.30;;;5.30;99.90;;;;;;5010136;28;20068;-65
2023/01/28 12:02:15;;;;;;;9.60;8.23;;;5.40;99.90;;;;;;5009573;28;20046;-65
2023/01/28 12:05:01;;;;;;;9.95;7.95;;;5.40;99.90;;;;;;5009948;28;20081;-65
2023/01/28 12:08:08;;;;;;;11.80;8.35;;;5.30;99.90;;;;;;5009171;28;20052;-66
2023/01/28 12:11:06;;;;;;;9.07;8.10;;;5.20;99.90;;;;;;4961915;28;20085;-65
2023/01/28 12:13:53;;;;;;;11.43;8.77;;;5.20;99.90;;;;;;5008596;28;20346;-65
2023/01/28 12:16:28;;;;;;;13.23;10.57;;;5.20;99.90;;;;;;4991987;28;20592;-65
2023/01/28 12:19:18;;;;;;;13.63;10.25;;;5.40;99.90;;;;;;5009724;28;20038;-65
2023/01/28 12:21:49;;;;;;;15.00;11.00;;;5.50;99.90;;;;;;5010387;28;20050;-65
2023/01/28 12:24:51;;;;;;;16.20;11.68;;;5.60;99.90;;;;;;5007889;28;20041;-65
2023/01/28 12:27:57;;;;;;;15.25;11.60;;;5.70;99.90;;;;;;4985042;28;20057;-66
2023/01/28 12:30:38;;;;;;;16.80;12.07;;;5.80;99.90;;;;;;5010709;28;20057;-64
2023/01/28 12:33:31;;;;;;;17.75;12.65;;;5.90;99.90;;;;;;5009428;28;20152;-65
2023/01/28 12:36:06;;;;;;;17.90;12.93;;;5.90;99.90;;;;;;5009115;28;20446;-65
2023/01/28 12:39:02;;;;;;;18.38;13.10;;;5.90;99.90;;;;;;5009129;28;20092;-65
2023/01/28 12:41:37;;;;;;;17.70;12.55;;;5.90;99.90;;;;;;4992404;28;20380;-66
2023/01/28 12:44:06;;;;;;;18.38;13.02;;;5.90;99.90;;;;;;5004470;28;20056;-66
2023/01/28 12:46:38;;;;;;;16.08;12.00;;;6.00;99.90;;;;;;5000053;28;20713;-68
2023/01/28 12:49:13;;;;;;;17.80;12.63;;;6.00;99.90;;;;;;5005031;28;20049;-66
2023/01/28 12:51:38;;;;;;;15.88;12.07;;;5.90;99.90;;;;;;5008835;28;20079;-66
2023/01/28 12:54:15;;;;;;;18.00;12.15;;;5.90;99.90;;;;;;5006919;28;20037;-66
2023/01/28 12:56:47;;;;;;;14.13;10.65;;;5.80;99.90;;;;;;5009469;28;20034;-66
2023/01/28 12:59:48;;;;;;;12.43;9.38;;;5.70;99.90;;;;;;5006715;28;20034;-66
2023/01/28 13:02:23;;;;;;;12.45;9.18;;;5.50;99.90;;;;;;4990800;28;20054;-66
2023/01/28 13:05:10;;;;;;;11.57;8.98;;;5.40;99.90;;;;;;5011767;28;20056;-66
2023/01/28 13:07:53;;;;;;;12.27;9.05;;;5.40;99.90;;;;;;5010736;28;20381;-67
2023/01/28 13:10:31;;;;;;;12.52;9.30;;;5.40;99.90;;;;;;5012061;28;20045;-67
2023/01/28 13:12:58;;;;;;;13.10;9.57;;;5.40;99.90;;;;;;4993280;28;20034;-67
2023/01/28 13:15:24;;;;;;;12.15;8.85;;;5.40;99.90;;;;;;5011373;28;20537;-66
2023/01/28 13:18:01;;;;;;;12.23;8.90;;;5.30;99.90;;;;;;5013411;28;20423;-66
2023/01/28 13:20:48;;;;;;;11.52;8.90;;;5.30;99.90;;;;;;5009492;28;20446;-67
2023/01/28 13:23:38;;;;;;;13.30;9.15;;;5.20;99.90;;;;;;5011147;28;20398;-66
2023/01/28 13:26:19;;;;;;;10.35;8.20;;;5.00;99.90;;;;;;4993818;28;20045;-67
2023/01/28 13:28:45;;;;;;;11.18;7.85;;;5.00;99.90;;;;;;5011673;28;20417;-66
2023/01/28 13:31:17;;;;;;;10.38;8.10;;;5.00;99.90;;;;;;4993743;28;20041;-66
2023/01/28 13:33:55;;;;;;;10.43;7.88;;;5.10;99.90;;;;;;5012235;28;20034;-66
2023/01/28 13:36:31;;;;;;;10.10;8.30;;;5.10;99.90;;;;;;4993404;28;20056;-66